sensor_id;sensor_type;location;lat;lon;timestamp;P1;durP1;ratioP1;P2;durP2;ratioP2
35675;SDS011;21790;42.668;23.298;2022-09-03T00:02:24;11.82;;;5.47;;
35675;SDS011;21790;42.668;23.298;2022-09-03T00:13:32;10.45;;;5.03;;
35675;SDS011;21790;42.668;23.298;2022-09-03T00:16:02;8.48;;;4.95;;
35675;SDS011;21790;42.668;23.298;2022-09-03T00:18:34;10.68;;;5.10;;
35675;SDS011;21790;42.668;23.298;2022-09-03T00:21:08;6.22;;;4.00;;
35675;SDS011;21790;42.668;23.298;2022-09-03T00:23:40;8.25;;;4.35;;
35675;SDS011;21790;42.668;23.298;2022-09-03T00:28:44;5.97;;;3.53;;
35675;SDS011;21790;42.668;23.298;2022-09-03T00:31:21;7.82;;;4.63;;
35675;SDS011;21790;42.668;23.298;2022-09-03T00:33:51;7.15;;;4.18;;
35675;SDS011;21790;42.668;23.298;2022-09-03T00:36:28;9.60;;;5.03;;
35675;SDS011;21790;42.668;23.298;2022-09-03T00:38:59;6.90;;;4.38;;
35675;SDS011;21790;42.668;23.298;2022-09-03T00:41:32;8.13;;;4.07;;
35675;SDS011;21790;42.668;23.298;2022-09-03T00:46:55;7.80;;;4.75;;
35675;SDS011;21790;42.668;23.298;2022-09-03T00:55:04;8.27;;;4.78;;
35675;SDS011;21790;42.668;23.298;2022-09-03T01:00:56;11.73;;;4.50;;
35675;SDS011;21790;42.668;23.298;2022-09-03T01:03:25;9.05;;;4.75;;
35675;SDS011;21790;42.668;23.298;2022-09-03T01:08:34;7.50;;;4.55;;
35675;SDS011;21790;42.668;23.298;2022-09-03T01:13:56;9.23;;;4.88;;
35675;SDS011;21790;42.668;23.298;2022-09-03T01:16:38;10.45;;;5.00;;
35675;SDS011;21790;42.668;23.298;2022-09-03T01:30:37;7.25;;;5.13;;
35675;SDS011;21790;42.668;23.298;2022-09-03T01:44:12;9.07;;;4.82;;
35675;SDS011;21790;42.668;23.298;2022-09-03T01:46:51;10.73;;;4.72;;
35675;SDS011;21790;42.668;23.298;2022-09-03T01:49:39;7.38;;;4.80;;
35675;SDS011;21790;42.668;23.298;2022-09-03T01:58:05;8.55;;;4.65;;
35675;SDS011;21790;42.668;23.298;2022-09-03T02:00:37;8.93;;;4.47;;
35675;SDS011;21790;42.668;23.298;2022-09-03T02:03:07;7.93;;;4.32;;
35675;SDS011;21790;42.668;23.298;2022-09-03T02:05:35;5.75;;;3.75;;
35675;SDS011;21790;42.668;23.298;2022-09-03T02:08:05;8.55;;;4.45;;
35675;SDS011;21790;42.668;23.298;2022-09-03T02:10:34;6.90;;;4.00;;
35675;SDS011;21790;42.668;23.298;2022-09-03T02:15:55;6.88;;;4.15;;
35675;SDS011;21790;42.668;23.298;2022-09-03T02:18:25;12.02;;;4.60;;
35675;SDS011;21790;42.668;23.298;2022-09-03T02:20:55;6.90;;;4.72;;
35675;SDS011;21790;42.668;23.298;2022-09-03T02:23:22;10.02;;;3.95;;
35675;SDS011;21790;42.668;23.298;2022-09-03T02:25:50;7.57;;;4.15;;
35675;SDS011;21790;42.668;23.298;2022-09-03T02:28:19;11.57;;;4.75;;
35675;SDS011;21790;42.668;23.298;2022-09-03T02:30:46;8.75;;;4.90;;
35675;SDS011;21790;42.668;23.298;2022-09-03T02:33:12;6.93;;;3.85;;
35675;SDS011;21790;42.668;23.298;2022-09-03T02:35:39;7.90;;;4.95;;
35675;SDS011;21790;42.668;23.298;2022-09-03T02:38:09;9.15;;;5.25;;
35675;SDS011;21790;42.668;23.298;2022-09-03T02:40:35;8.10;;;4.70;;
35675;SDS011;21790;42.668;23.298;2022-09-03T02:43:01;16.50;;;5.00;;
35675;SDS011;21790;42.668;23.298;2022-09-03T02:45:30;7.10;;;4.15;;
35675;SDS011;21790;42.668;23.298;2022-09-03T02:47:57;5.38;;;3.85;;
35675;SDS011;21790;42.668;23.298;2022-09-03T02:50:24;7.20;;;3.85;;
35675;SDS011;21790;42.668;23.298;2022-09-03T02:52:50;8.65;;;4.75;;
35675;SDS011;21790;42.668;23.298;2022-09-03T02:55:16;7.75;;;4.68;;
35675;SDS011;21790;42.668;23.298;2022-09-03T02:57:43;9.80;;;5.43;;
35675;SDS011;21790;42.668;23.298;2022-09-03T03:00:09;7.57;;;4.78;;
35675;SDS011;21790;42.668;23.298;2022-09-03T03:02:34;8.52;;;4.43;;
35675;SDS011;21790;42.668;23.298;2022-09-03T03:05:00;9.48;;;4.80;;
35675;SDS011;21790;42.668;23.298;2022-09-03T03:07:26;9.55;;;4.55;;
35675;SDS011;21790;42.668;23.298;2022-09-03T03:09:55;8.00;;;4.35;;
35675;SDS011;21790;42.668;23.298;2022-09-03T03:12:21;8.75;;;4.22;;
35675;SDS011;21790;42.668;23.298;2022-09-03T03:14:46;11.55;;;5.15;;
35675;SDS011;21790;42.668;23.298;2022-09-03T03:17:12;9.18;;;4.85;;
35675;SDS011;21790;42.668;23.298;2022-09-03T03:19:37;10.60;;;4.78;;
35675;SDS011;21790;42.668;23.298;2022-09-03T03:22:02;9.00;;;4.50;;
35675;SDS011;21790;42.668;23.298;2022-09-03T03:24:28;10.82;;;5.18;;
35675;SDS011;21790;42.668;23.298;2022-09-03T03:26:54;12.45;;;5.18;;
35675;SDS011;21790;42.668;23.298;2022-09-03T03:29:22;9.88;;;5.22;;
35675;SDS011;21790;42.668;23.298;2022-09-03T03:31:49;8.68;;;4.65;;
35675;SDS011;21790;42.668;23.298;2022-09-03T03:34:15;8.27;;;4.88;;
35675;SDS011;21790;42.668;23.298;2022-09-03T03:36:40;9.68;;;5.32;;
35675;SDS011;21790;42.668;23.298;2022-09-03T03:39:06;8.68;;;4.97;;
35675;SDS011;21790;42.668;23.298;2022-09-03T03:41:32;8.75;;;4.78;;
35675;SDS011;21790;42.668;23.298;2022-09-03T03:44:00;9.13;;;5.22;;
35675;SDS011;21790;42.668;23.298;2022-09-03T03:46:31;10.05;;;4.75;;
35675;SDS011;21790;42.668;23.298;2022-09-03T03:49:04;10.32;;;5.38;;
35675;SDS011;21790;42.668;23.298;2022-09-03T03:51:30;8.85;;;4.60;;
35675;SDS011;21790;42.668;23.298;2022-09-03T03:53:57;8.20;;;4.82;;
35675;SDS011;21790;42.668;23.298;2022-09-03T03:56:24;13.38;;;5.28;;
35675;SDS011;21790;42.668;23.298;2022-09-03T03:58:51;8.60;;;5.32;;
35675;SDS011;21790;42.668;23.298;2022-09-03T04:01:21;6.97;;;4.53;;
35675;SDS011;21790;42.668;23.298;2022-09-03T04:03:47;8.13;;;4.70;;
35675;SDS011;21790;42.668;23.298;2022-09-03T04:06:14;11.57;;;4.80;;
35675;SDS011;21790;42.668;23.298;2022-09-03T04:08:42;6.65;;;4.63;;
35675;SDS011;21790;42.668;23.298;2022-09-03T04:11:10;8.68;;;4.93;;
35675;SDS011;21790;42.668;23.298;2022-09-03T04:13:38;9.23;;;4.15;;
35675;SDS011;21790;42.668;23.298;2022-09-03T04:16:06;12.07;;;5.15;;
35675;SDS011;21790;42.668;23.298;2022-09-03T04:18:34;8.45;;;5.20;;
35675;SDS011;21790;42.668;23.298;2022-09-03T04:21:11;13.73;;;5.15;;
35675;SDS011;21790;42.668;23.298;2022-09-03T04:23:42;15.75;;;5.18;;
35675;SDS011;21790;42.668;23.298;2022-09-03T04:26:09;6.47;;;4.50;;
35675;SDS011;21790;42.668;23.298;2022-09-03T04:28:37;6.85;;;4.32;;
35675;SDS011;21790;42.668;23.298;2022-09-03T04:31:03;8.65;;;5.00;;
35675;SDS011;21790;42.668;23.298;2022-09-03T04:33:30;7.68;;;4.53;;
35675;SDS011;21790;42.668;23.298;2022-09-03T04:36:16;7.93;;;4.90;;
35675;SDS011;21790;42.668;23.298;2022-09-03T04:38:47;8.65;;;4.68;;
35675;SDS011;21790;42.668;23.298;2022-09-03T04:41:17;7.95;;;4.68;;
35675;SDS011;21790;42.668;23.298;2022-09-03T04:43:44;9.70;;;4.47;;
35675;SDS011;21790;42.668;23.298;2022-09-03T04:46:11;11.52;;;4.28;;
35675;SDS011;21790;42.668;23.298;2022-09-03T04:48:38;8.85;;;4.78;;
35675;SDS011;21790;42.668;23.298;2022-09-03T04:51:08;9.63;;;5.03;;
35675;SDS011;21790;42.668;23.298;2022-09-03T04:53:38;7.95;;;5.00;;
35675;SDS011;21790;42.668;23.298;2022-09-03T04:56:11;10.38;;;5.35;;
35675;SDS011;21790;42.668;23.298;2022-09-03T04:58:38;9.52;;;5.07;;
35675;SDS011;21790;42.668;23.298;2022-09-03T05:01:07;8.68;;;5.18;;
35675;SDS011;21790;42.668;23.298;2022-09-03T05:03:36;8.38;;;4.57;;
35675;SDS011;21790;42.668;23.298;2022-09-03T05:06:02;10.05;;;4.55;;
35675;SDS011;21790;42.668;23.298;2022-09-03T05:08:29;8.15;;;4.88;;
35675;SDS011;21790;42.668;23.298;2022-09-03T05:10:57;6.78;;;4.53;;
35675;SDS011;21790;42.668;23.298;2022-09-03T05:13:24;8.30;;;4.78;;
35675;SDS011;21790;42.668;23.298;2022-09-03T05:15:50;7.30;;;4.47;;
35675;SDS011;21790;42.668;23.298;2022-09-03T05:18:15;8.45;;;4.55;;
35675;SDS011;21790;42.668;23.298;2022-09-03T05:20:41;7.60;;;4.43;;
35675;SDS011;21790;42.668;23.298;2022-09-03T05:23:07;11.93;;;4.07;;
35675;SDS011;21790;42.668;23.298;2022-09-03T05:25:32;9.38;;;4.88;;
35675;SDS011;21790;42.668;23.298;2022-09-03T05:27:58;8.27;;;4.38;;
35675;SDS011;21790;42.668;23.298;2022-09-03T05:30:23;8.95;;;4.70;;
35675;SDS011;21790;42.668;23.298;2022-09-03T05:32:50;8.50;;;4.30;;
35675;SDS011;21790;42.668;23.298;2022-09-03T05:35:16;8.65;;;4.63;;
35675;SDS011;21790;42.668;23.298;2022-09-03T05:37:42;10.13;;;4.45;;
35675;SDS011;21790;42.668;23.298;2022-09-03T05:40:08;8.18;;;4.65;;
35675;SDS011;21790;42.668;23.298;2022-09-03T05:42:37;8.45;;;3.80;;
35675;SDS011;21790;42.668;23.298;2022-09-03T05:45:07;9.45;;;4.70;;
35675;SDS011;21790;42.668;23.298;2022-09-03T05:47:37;7.13;;;3.92;;
35675;SDS011;21790;42.668;23.298;2022-09-03T05:50:06;7.28;;;4.45;;
35675;SDS011;21790;42.668;23.298;2022-09-03T05:52:34;10.77;;;4.22;;
35675;SDS011;21790;42.668;23.298;2022-09-03T05:55:00;9.00;;;4.47;;
35675;SDS011;21790;42.668;23.298;2022-09-03T05:57:26;5.70;;;4.00;;
35675;SDS011;21790;42.668;23.298;2022-09-03T05:59:51;6.10;;;3.42;;
35675;SDS011;21790;42.668;23.298;2022-09-03T06:02:17;6.80;;;3.80;;
35675;SDS011;21790;42.668;23.298;2022-09-03T06:04:43;6.70;;;4.40;;
35675;SDS011;21790;42.668;23.298;2022-09-03T06:07:08;9.25;;;4.30;;
35675;SDS011;21790;42.668;23.298;2022-09-03T06:09:34;6.53;;;4.13;;
35675;SDS011;21790;42.668;23.298;2022-09-03T06:11:59;5.68;;;3.78;;
35675;SDS011;21790;42.668;23.298;2022-09-03T06:14:25;8.63;;;3.67;;
35675;SDS011;21790;42.668;23.298;2022-09-03T06:16:50;8.23;;;4.72;;
35675;SDS011;21790;42.668;23.298;2022-09-03T06:19:16;7.88;;;4.35;;
35675;SDS011;21790;42.668;23.298;2022-09-03T06:21:43;8.23;;;4.82;;
35675;SDS011;21790;42.668;23.298;2022-09-03T06:24:19;8.93;;;4.90;;
35675;SDS011;21790;42.668;23.298;2022-09-03T06:26:48;6.65;;;3.60;;
35675;SDS011;21790;42.668;23.298;2022-09-03T06:29:15;6.88;;;4.15;;
35675;SDS011;21790;42.668;23.298;2022-09-03T06:31:42;7.68;;;4.32;;
35675;SDS011;21790;42.668;23.298;2022-09-03T06:34:08;7.22;;;3.88;;
35675;SDS011;21790;42.668;23.298;2022-09-03T06:36:33;11.43;;;4.93;;
35675;SDS011;21790;42.668;23.298;2022-09-03T06:38:59;8.05;;;4.32;;
35675;SDS011;21790;42.668;23.298;2022-09-03T06:41:26;9.20;;;4.75;;
35675;SDS011;21790;42.668;23.298;2022-09-03T06:43:56;9.40;;;5.65;;
35675;SDS011;21790;42.668;23.298;2022-09-03T06:46:26;8.27;;;4.65;;
35675;SDS011;21790;42.668;23.298;2022-09-03T06:48:51;8.43;;;4.82;;
35675;SDS011;21790;42.668;23.298;2022-09-03T06:51:18;10.73;;;4.63;;
35675;SDS011;21790;42.668;23.298;2022-09-03T06:53:46;7.63;;;4.30;;
35675;SDS011;21790;42.668;23.298;2022-09-03T06:56:18;11.38;;;5.20;;
35675;SDS011;21790;42.668;23.298;2022-09-03T06:58:50;8.85;;;5.05;;
35675;SDS011;21790;42.668;23.298;2022-09-03T07:01:18;8.48;;;4.88;;
35675;SDS011;21790;42.668;23.298;2022-09-03T07:03:46;11.00;;;4.55;;
35675;SDS011;21790;42.668;23.298;2022-09-03T07:06:13;8.02;;;5.07;;
35675;SDS011;21790;42.668;23.298;2022-09-03T07:08:41;8.55;;;4.43;;
35675;SDS011;21790;42.668;23.298;2022-09-03T07:11:08;7.95;;;4.72;;
35675;SDS011;21790;42.668;23.298;2022-09-03T07:13:36;7.32;;;4.25;;
35675;SDS011;21790;42.668;23.298;2022-09-03T07:16:08;6.53;;;4.57;;
35675;SDS011;21790;42.668;23.298;2022-09-03T07:18:35;8.10;;;4.70;;
35675;SDS011;21790;42.668;23.298;2022-09-03T07:21:02;8.68;;;4.38;;
35675;SDS011;21790;42.668;23.298;2022-09-03T07:23:30;8.25;;;4.43;;
35675;SDS011;21790;42.668;23.298;2022-09-03T07:25:58;8.52;;;4.05;;
35675;SDS011;21790;42.668;23.298;2022-09-03T07:28:25;12.23;;;6.35;;
35675;SDS011;21790;42.668;23.298;2022-09-03T07:30:52;10.50;;;5.47;;
35675;SDS011;21790;42.668;23.298;2022-09-03T07:33:18;9.18;;;5.38;;
35675;SDS011;21790;42.668;23.298;2022-09-03T07:35:44;8.88;;;4.07;;
35675;SDS011;21790;42.668;23.298;2022-09-03T07:38:11;8.55;;;4.40;;
35675;SDS011;21790;42.668;23.298;2022-09-03T07:40:40;10.48;;;4.43;;
35675;SDS011;21790;42.668;23.298;2022-09-03T07:43:06;9.48;;;5.38;;
35675;SDS011;21790;42.668;23.298;2022-09-03T07:45:31;7.32;;;4.32;;
35675;SDS011;21790;42.668;23.298;2022-09-03T07:47:57;7.05;;;4.50;;
35675;SDS011;21790;42.668;23.298;2022-09-03T07:50:23;10.75;;;4.93;;
35675;SDS011;21790;42.668;23.298;2022-09-03T07:52:54;6.57;;;4.75;;
35675;SDS011;21790;42.668;23.298;2022-09-03T07:55:21;8.90;;;4.68;;
35675;SDS011;21790;42.668;23.298;2022-09-03T07:57:46;7.22;;;4.43;;
35675;SDS011;21790;42.668;23.298;2022-09-03T08:00:12;9.52;;;5.03;;
35675;SDS011;21790;42.668;23.298;2022-09-03T08:02:38;5.50;;;4.18;;
35675;SDS011;21790;42.668;23.298;2022-09-03T08:05:04;6.82;;;4.45;;
35675;SDS011;21790;42.668;23.298;2022-09-03T08:07:30;5.15;;;3.78;;
35675;SDS011;21790;42.668;23.298;2022-09-03T08:09:55;8.88;;;4.10;;
35675;SDS011;21790;42.668;23.298;2022-09-03T08:12:21;6.20;;;4.05;;
35675;SDS011;21790;42.668;23.298;2022-09-03T08:14:46;6.93;;;4.22;;
35675;SDS011;21790;42.668;23.298;2022-09-03T08:17:12;9.77;;;4.70;;
35675;SDS011;21790;42.668;23.298;2022-09-03T08:19:37;5.22;;;3.88;;
35675;SDS011;21790;42.668;23.298;2022-09-03T08:22:05;9.15;;;4.10;;
35675;SDS011;21790;42.668;23.298;2022-09-03T08:24:30;6.57;;;4.55;;
35675;SDS011;21790;42.668;23.298;2022-09-03T08:26:56;5.18;;;3.63;;
35675;SDS011;21790;42.668;23.298;2022-09-03T08:29:21;6.13;;;3.53;;
35675;SDS011;21790;42.668;23.298;2022-09-03T08:31:47;5.10;;;3.97;;
35675;SDS011;21790;42.668;23.298;2022-09-03T08:34:12;6.28;;;4.10;;
35675;SDS011;21790;42.668;23.298;2022-09-03T08:36:38;5.97;;;3.80;;
35675;SDS011;21790;42.668;23.298;2022-09-03T08:39:06;6.13;;;3.80;;
35675;SDS011;21790;42.668;23.298;2022-09-03T08:47:04;4.53;;;3.40;;
35675;SDS011;21790;42.668;23.298;2022-09-03T08:49:38;6.15;;;4.03;;
35675;SDS011;21790;42.668;23.298;2022-09-03T08:52:30;7.05;;;4.65;;
35675;SDS011;21790;42.668;23.298;2022-09-03T08:55:19;11.10;;;6.35;;
35675;SDS011;21790;42.668;23.298;2022-09-03T08:58:25;10.65;;;6.63;;
35675;SDS011;21790;42.668;23.298;2022-09-03T09:03:33;7.30;;;4.60;;
35675;SDS011;21790;42.668;23.298;2022-09-03T09:06:25;7.22;;;3.92;;
35675;SDS011;21790;42.668;23.298;2022-09-03T09:22:45;9.03;;;5.07;;
35675;SDS011;21790;42.668;23.298;2022-09-03T09:25:25;8.57;;;4.18;;
35675;SDS011;21790;42.668;23.298;2022-09-03T09:30:22;8.57;;;3.88;;
35675;SDS011;21790;42.668;23.298;2022-09-03T09:32:47;6.53;;;4.28;;
35675;SDS011;21790;42.668;23.298;2022-09-03T09:35:14;7.80;;;4.15;;
35675;SDS011;21790;42.668;23.298;2022-09-03T09:37:56;7.30;;;4.60;;
35675;SDS011;21790;42.668;23.298;2022-09-03T09:43:05;4.78;;;3.95;;
35675;SDS011;21790;42.668;23.298;2022-09-03T09:45:31;6.53;;;4.20;;
35675;SDS011;21790;42.668;23.298;2022-09-03T09:47:58;5.95;;;4.15;;
35675;SDS011;21790;42.668;23.298;2022-09-03T09:50:24;5.22;;;3.40;;
35675;SDS011;21790;42.668;23.298;2022-09-03T09:53:03;5.25;;;3.90;;
35675;SDS011;21790;42.668;23.298;2022-09-03T09:55:47;5.85;;;4.00;;
35675;SDS011;21790;42.668;23.298;2022-09-03T09:58:20;6.78;;;3.80;;
35675;SDS011;21790;42.668;23.298;2022-09-03T10:00:55;9.25;;;3.83;;
35675;SDS011;21790;42.668;23.298;2022-09-03T10:03:23;5.65;;;3.90;;
35675;SDS011;21790;42.668;23.298;2022-09-03T10:06:05;11.32;;;3.92;;
35675;SDS011;21790;42.668;23.298;2022-09-03T10:08:52;6.28;;;4.32;;
35675;SDS011;21790;42.668;23.298;2022-09-03T10:11:30;6.15;;;4.25;;
35675;SDS011;21790;42.668;23.298;2022-09-03T10:13:57;7.55;;;5.03;;
35675;SDS011;21790;42.668;23.298;2022-09-03T10:16:28;11.18;;;5.05;;
35675;SDS011;21790;42.668;23.298;2022-09-03T10:21:38;13.32;;;4.47;;
35675;SDS011;21790;42.668;23.298;2022-09-03T10:26:50;7.50;;;4.40;;
35675;SDS011;21790;42.668;23.298;2022-09-03T10:29:17;7.82;;;3.50;;
35675;SDS011;21790;42.668;23.298;2022-09-03T10:34:31;5.28;;;4.00;;
35675;SDS011;21790;42.668;23.298;2022-09-03T10:40:24;5.13;;;3.75;;
35675;SDS011;21790;42.668;23.298;2022-09-03T10:42:50;5.55;;;4.07;;
35675;SDS011;21790;42.668;23.298;2022-09-03T10:53:12;6.93;;;3.78;;
35675;SDS011;21790;42.668;23.298;2022-09-03T11:04:09;7.20;;;4.25;;
35675;SDS011;21790;42.668;23.298;2022-09-03T11:06:58;4.47;;;3.55;;
35675;SDS011;21790;42.668;23.298;2022-09-03T11:09:34;7.07;;;4.65;;
35675;SDS011;21790;42.668;23.298;2022-09-03T11:22:38;5.70;;;3.85;;
35675;SDS011;21790;42.668;23.298;2022-09-03T11:25:06;5.57;;;3.53;;
35675;SDS011;21790;42.668;23.298;2022-09-03T11:30:10;6.43;;;4.00;;
35675;SDS011;21790;42.668;23.298;2022-09-03T11:35:39;8.75;;;3.92;;
35675;SDS011;21790;42.668;23.298;2022-09-03T11:40:56;6.57;;;3.90;;
35675;SDS011;21790;42.668;23.298;2022-09-03T11:43:40;8.88;;;3.80;;
35675;SDS011;21790;42.668;23.298;2022-09-03T11:48:53;5.10;;;3.28;;
35675;SDS011;21790;42.668;23.298;2022-09-03T11:53:55;5.75;;;3.75;;
35675;SDS011;21790;42.668;23.298;2022-09-03T11:56:22;8.00;;;4.60;;
35675;SDS011;21790;42.668;23.298;2022-09-03T11:58:59;6.38;;;4.30;;
35675;SDS011;21790;42.668;23.298;2022-09-03T12:01:28;7.35;;;4.30;;
35675;SDS011;21790;42.668;23.298;2022-09-03T12:04:02;5.47;;;2.97;;
35675;SDS011;21790;42.668;23.298;2022-09-03T12:18:17;4.75;;;3.17;;
35675;SDS011;21790;42.668;23.298;2022-09-03T12:20:59;5.15;;;3.10;;
35675;SDS011;21790;42.668;23.298;2022-09-03T12:23:32;4.25;;;3.08;;
35675;SDS011;21790;42.668;23.298;2022-09-03T12:26:19;4.05;;;2.67;;
35675;SDS011;21790;42.668;23.298;2022-09-03T12:28:51;3.13;;;2.42;;
35675;SDS011;21790;42.668;23.298;2022-09-03T12:31:26;3.70;;;2.95;;
35675;SDS011;21790;42.668;23.298;2022-09-03T12:34:06;5.18;;;3.30;;
35675;SDS011;21790;42.668;23.298;2022-09-03T12:36:37;6.13;;;3.97;;
35675;SDS011;21790;42.668;23.298;2022-09-03T12:39:23;5.28;;;3.70;;
35675;SDS011;21790;42.668;23.298;2022-09-03T12:44:32;3.63;;;2.58;;
35675;SDS011;21790;42.668;23.298;2022-09-03T12:49:36;3.95;;;2.80;;
35675;SDS011;21790;42.668;23.298;2022-09-03T12:52:06;4.45;;;3.47;;
35675;SDS011;21790;42.668;23.298;2022-09-03T12:57:50;3.90;;;3.13;;
35675;SDS011;21790;42.668;23.298;2022-09-03T13:00:20;4.70;;;2.97;;
35675;SDS011;21790;42.668;23.298;2022-09-03T13:02:59;5.07;;;3.35;;
35675;SDS011;21790;42.668;23.298;2022-09-03T13:05:32;5.97;;;4.07;;
35675;SDS011;21790;42.668;23.298;2022-09-03T13:08:04;5.22;;;3.40;;
35675;SDS011;21790;42.668;23.298;2022-09-03T13:10:33;6.15;;;4.18;;
35675;SDS011;21790;42.668;23.298;2022-09-03T13:15:52;5.60;;;3.38;;
35675;SDS011;21790;42.668;23.298;2022-09-03T13:18:41;5.88;;;3.20;;
35675;SDS011;21790;42.668;23.298;2022-09-03T13:24:08;4.20;;;3.15;;
35675;SDS011;21790;42.668;23.298;2022-09-03T13:35:33;4.78;;;3.58;;
35675;SDS011;21790;42.668;23.298;2022-09-03T13:40:53;8.35;;;4.43;;
35675;SDS011;21790;42.668;23.298;2022-09-03T13:46:20;4.57;;;3.03;;
35675;SDS011;21790;42.668;23.298;2022-09-03T13:48:55;5.68;;;3.15;;
35675;SDS011;21790;42.668;23.298;2022-09-03T13:51:55;7.90;;;3.75;;
35675;SDS011;21790;42.668;23.298;2022-09-03T13:54:33;4.10;;;2.70;;
35675;SDS011;21790;42.668;23.298;2022-09-03T13:57:04;4.82;;;2.83;;
35675;SDS011;21790;42.668;23.298;2022-09-03T13:59:50;3.25;;;2.50;;
35675;SDS011;21790;42.668;23.298;2022-09-03T14:02:30;4.68;;;3.38;;
35675;SDS011;21790;42.668;23.298;2022-09-03T14:05:00;4.45;;;3.00;;
35675;SDS011;21790;42.668;23.298;2022-09-03T14:07:39;5.72;;;3.88;;
35675;SDS011;21790;42.668;23.298;2022-09-03T14:10:22;6.23;;;3.60;;
35675;SDS011;21790;42.668;23.298;2022-09-03T14:15:40;8.82;;;4.72;;
35675;SDS011;21790;42.668;23.298;2022-09-03T14:21:20;8.95;;;3.50;;
35675;SDS011;21790;42.668;23.298;2022-09-03T14:26:53;5.18;;;2.95;;
35675;SDS011;21790;42.668;23.298;2022-09-03T14:29:26;6.78;;;3.13;;
35675;SDS011;21790;42.668;23.298;2022-09-03T14:40:30;5.72;;;4.03;;
35675;SDS011;21790;42.668;23.298;2022-09-03T14:43:33;8.00;;;4.03;;
35675;SDS011;21790;42.668;23.298;2022-09-03T15:09:39;3.80;;;2.45;;
35675;SDS011;21790;42.668;23.298;2022-09-03T15:12:24;3.88;;;2.63;;
35675;SDS011;21790;42.668;23.298;2022-09-03T15:14:59;3.85;;;2.58;;
35675;SDS011;21790;42.668;23.298;2022-09-03T15:36:26;13.27;;;11.88;;
35675;SDS011;21790;42.668;23.298;2022-09-03T15:39:10;9.80;;;4.68;;
35675;SDS011;21790;42.668;23.298;2022-09-03T15:41:43;5.63;;;3.25;;
35675;SDS011;21790;42.668;23.298;2022-09-03T15:44:15;5.93;;;3.33;;
35675;SDS011;21790;42.668;23.298;2022-09-03T15:46:49;5.32;;;3.30;;
35675;SDS011;21790;42.668;23.298;2022-09-03T15:55:10;7.47;;;3.00;;
35675;SDS011;21790;42.668;23.298;2022-09-03T16:00:33;6.00;;;3.22;;
35675;SDS011;21790;42.668;23.298;2022-09-03T16:03:14;13.48;;;8.73;;
35675;SDS011;21790;42.668;23.298;2022-09-03T16:05:48;4.97;;;3.92;;
35675;SDS011;21790;42.668;23.298;2022-09-03T16:11:40;5.90;;;3.28;;
35675;SDS011;21790;42.668;23.298;2022-09-03T16:27:49;6.57;;;5.55;;
35675;SDS011;21790;42.668;23.298;2022-09-03T16:30:21;6.80;;;4.68;;
35675;SDS011;21790;42.668;23.298;2022-09-03T16:41:28;7.50;;;4.45;;
35675;SDS011;21790;42.668;23.298;2022-09-03T16:47:08;7.00;;;4.68;;
35675;SDS011;21790;42.668;23.298;2022-09-03T17:01:08;9.73;;;5.45;;
35675;SDS011;21790;42.668;23.298;2022-09-03T17:11:50;7.82;;;4.53;;
35675;SDS011;21790;42.668;23.298;2022-09-03T17:20:24;10.02;;;7.93;;
35675;SDS011;21790;42.668;23.298;2022-09-03T17:34:21;8.15;;;5.50;;
35675;SDS011;21790;42.668;23.298;2022-09-03T17:42:59;10.23;;;8.13;;
35675;SDS011;21790;42.668;23.298;2022-09-03T17:45:39;4.88;;;4.18;;
35675;SDS011;21790;42.668;23.298;2022-09-03T17:56:27;8.00;;;4.82;;
35675;SDS011;21790;42.668;23.298;2022-09-03T18:02:24;7.20;;;5.05;;
35675;SDS011;21790;42.668;23.298;2022-09-03T18:15:55;6.72;;;4.80;;
35675;SDS011;21790;42.668;23.298;2022-09-03T18:18:29;6.60;;;4.85;;
35675;SDS011;21790;42.668;23.298;2022-09-03T18:20:57;8.68;;;5.60;;
35675;SDS011;21790;42.668;23.298;2022-09-03T18:23:47;5.28;;;4.57;;
35675;SDS011;21790;42.668;23.298;2022-09-03T18:26:42;9.95;;;6.30;;
35675;SDS011;21790;42.668;23.298;2022-09-03T18:29:31;8.23;;;5.07;;
35675;SDS011;21790;42.668;23.298;2022-09-03T18:32:20;9.20;;;6.47;;
35675;SDS011;21790;42.668;23.298;2022-09-03T18:35:04;12.55;;;9.40;;
35675;SDS011;21790;42.668;23.298;2022-09-03T18:37:47;13.48;;;8.93;;
35675;SDS011;21790;42.668;23.298;2022-09-03T18:40:41;9.00;;;5.97;;
35675;SDS011;21790;42.668;23.298;2022-09-03T18:43:43;9.05;;;5.22;;
35675;SDS011;21790;42.668;23.298;2022-09-03T18:52:53;11.70;;;5.65;;
35675;SDS011;21790;42.668;23.298;2022-09-03T19:01:49;11.38;;;6.35;;
35675;SDS011;21790;42.668;23.298;2022-09-03T19:07:33;8.18;;;5.80;;
35675;SDS011;21790;42.668;23.298;2022-09-03T19:10:45;9.88;;;6.00;;
35675;SDS011;21790;42.668;23.298;2022-09-03T19:13:35;8.88;;;5.80;;
35675;SDS011;21790;42.668;23.298;2022-09-03T19:19:39;16.02;;;6.82;;
35675;SDS011;21790;42.668;23.298;2022-09-03T19:25:22;17.20;;;6.75;;
35675;SDS011;21790;42.668;23.298;2022-09-03T19:28:12;13.52;;;6.53;;
35675;SDS011;21790;42.668;23.298;2022-09-03T19:37:10;9.70;;;6.07;;
35675;SDS011;21790;42.668;23.298;2022-09-03T19:46:36;16.65;;;6.25;;
35675;SDS011;21790;42.668;23.298;2022-09-03T19:52:49;11.25;;;5.85;;
35675;SDS011;21790;42.668;23.298;2022-09-03T19:55:39;12.82;;;6.47;;
35675;SDS011;21790;42.668;23.298;2022-09-03T19:58:28;10.07;;;6.72;;
35675;SDS011;21790;42.668;23.298;2022-09-03T20:01:15;13.45;;;6.35;;
35675;SDS011;21790;42.668;23.298;2022-09-03T20:04:24;9.93;;;5.97;;
35675;SDS011;21790;42.668;23.298;2022-09-03T20:07:11;9.05;;;5.57;;
35675;SDS011;21790;42.668;23.298;2022-09-03T20:09:55;9.25;;;5.57;;
35675;SDS011;21790;42.668;23.298;2022-09-03T20:12:46;10.45;;;6.63;;
35675;SDS011;21790;42.668;23.298;2022-09-03T20:15:17;17.02;;;7.30;;
35675;SDS011;21790;42.668;23.298;2022-09-03T20:20:40;24.90;;;12.45;;
35675;SDS011;21790;42.668;23.298;2022-09-03T20:34:41;15.70;;;8.07;;
35675;SDS011;21790;42.668;23.298;2022-09-03T20:51:47;12.35;;;7.43;;
35675;SDS011;21790;42.668;23.298;2022-09-03T20:59:44;10.90;;;6.75;;
35675;SDS011;21790;42.668;23.298;2022-09-03T21:15:46;13.68;;;7.97;;
35675;SDS011;21790;42.668;23.298;2022-09-03T21:23:37;19.30;;;11.00;;
35675;SDS011;21790;42.668;23.298;2022-09-03T21:29:31;22.08;;;12.95;;
35675;SDS011;21790;42.668;23.298;2022-09-03T21:31:53;20.42;;;10.43;;
35675;SDS011;21790;42.668;23.298;2022-09-03T21:34:40;19.85;;;10.25;;
35675;SDS011;21790;42.668;23.298;2022-09-03T21:37:09;15.52;;;9.45;;
35675;SDS011;21790;42.668;23.298;2022-09-03T21:45:02;15.38;;;7.28;;
35675;SDS011;21790;42.668;23.298;2022-09-03T21:47:36;15.65;;;7.53;;
35675;SDS011;21790;42.668;23.298;2022-09-03T21:50:17;11.85;;;6.90;;
35675;SDS011;21790;42.668;23.298;2022-09-03T21:52:50;12.75;;;7.45;;
35675;SDS011;21790;42.668;23.298;2022-09-03T22:00:45;12.23;;;7.70;;
35675;SDS011;21790;42.668;23.298;2022-09-03T22:03:12;12.30;;;7.07;;
35675;SDS011;21790;42.668;23.298;2022-09-03T22:05:49;12.98;;;7.75;;
35675;SDS011;21790;42.668;23.298;2022-09-03T22:08:27;15.40;;;7.55;;
35675;SDS011;21790;42.668;23.298;2022-09-03T22:11:17;16.02;;;7.60;;
35675;SDS011;21790;42.668;23.298;2022-09-03T22:13:52;12.30;;;6.50;;
35675;SDS011;21790;42.668;23.298;2022-09-03T22:16:38;12.40;;;6.93;;
35675;SDS011;21790;42.668;23.298;2022-09-03T22:19:32;10.95;;;7.03;;
35675;SDS011;21790;42.668;23.298;2022-09-03T22:22:01;14.68;;;7.80;;
35675;SDS011;21790;42.668;23.298;2022-09-03T22:30:07;12.85;;;6.72;;
35675;SDS011;21790;42.668;23.298;2022-09-03T22:35:32;12.38;;;6.78;;
35675;SDS011;21790;42.668;23.298;2022-09-03T22:40:48;13.30;;;6.75;;